Time;durP1;ratioP1;P1;durP2;ratioP2;P2;SDS_P1;SDS_P2;PMS_P1;PMS_P2;Temp;Humidity;BMP_temperature;BMP_pressure;BME280_temperature;BME280_humidity;BME280_pressure;Samples;Min_cycle;Max_cycle;Signal;HPM_P1;HPM_P2
2022/03/14 00:01:50;;;;;;;22.85;16.25;;;;;;;;;;5095618;28;20205;-67
2022/03/14 00:04:18;;;;;;;20.98;17.20;;;;;;;;;;5095884;28;20199;-63
2022/03/14 00:06:49;;;;;;;22.02;17.48;;;;;;;;;;5095846;28;20239;-63
2022/03/14 00:09:17;;;;;;;26.67;18.35;;;;;;;;;;5095861;28;20203;-64
2022/03/14 00:11:45;;;;;;;23.10;18.77;;;;;;;;;;5095458;28;20259;-63
2022/03/14 00:14:13;;;;;;;26.75;17.65;;;;;;;;;;5095407;28;20287;-63
2022/03/14 00:16:45;;;;;;;22.63;17.10;;;;;;;;;;5095935;28;20283;-64
2022/03/14 00:19:13;;;;;;;22.77;16.88;;;;;;;;;;5096346;28;20196;-63
2022/03/14 00:21:41;;;;;;;27.73;17.63;;;;;;;;;;5095423;28;20774;-63
2022/03/14 00:24:08;;;;;;;24.48;17.27;;;;;;;;;;5095576;28;20682;-63
2022/03/14 00:26:36;;;;;;;24.70;17.17;;;;;;;;;;5095607;28;20204;-64
2022/03/14 00:29:05;;;;;;;23.05;17.65;;;;;;;;;;5095164;28;20677;-63
2022/03/14 00:31:33;;;;;;;23.92;17.75;;;;;;;;;;5095479;28;20223;-63
2022/03/14 00:34:00;;;;;;;25.50;18.10;;;;;;;;;;5095390;28;20203;-63
2022/03/14 00:36:27;;;;;;;24.52;18.88;;;;;;;;;;5095652;28;20644;-63
2022/03/14 00:38:55;;;;;;;27.13;19.05;;;;;;;;;;5094964;28;20193;-63
2022/03/14 00:41:22;;;;;;;23.40;17.70;;;;;;;;;;5095321;28;20206;-63
2022/03/14 00:43:49;;;;;;;38.90;19.03;;;;;;;;;;5095451;28;20200;-63
2022/03/14 00:46:18;;;;;;;25.88;18.00;;;;;;;;;;5095009;28;20443;-63
2022/03/14 00:48:45;;;;;;;27.75;18.98;;;;;;;;;;5095345;28;20207;-63
2022/03/14 00:51:13;;;;;;;25.75;18.73;;;;;;;;;;5094778;28;20636;-63
2022/03/14 00:53:40;;;;;;;25.00;17.42;;;;;;;;;;5094628;28;20236;-64
2022/03/14 00:56:07;;;;;;;25.55;17.85;;;;;;;;;;5095580;28;20190;-63
2022/03/14 00:58:35;;;;;;;23.95;17.48;;;;;;;;;;5094631;28;20707;-63
2022/03/14 01:01:02;;;;;;;20.85;17.98;;;;;;;;;;5095178;28;20284;-63
2022/03/14 01:03:31;;;;;;;21.48;17.50;;;;;;;;;;5094855;28;20193;-63
2022/03/14 01:05:58;;;;;;;26.90;18.90;;;;;;;;;;5095187;28;20192;-63
2022/03/14 01:08:25;;;;;;;26.88;18.85;;;;;;;;;;5094749;28;20204;-63
2022/03/14 01:10:53;;;;;;;28.60;18.40;;;;;;;;;;5094577;28;20221;-63
2022/03/14 01:13:20;;;;;;;25.52;18.55;;;;;;;;;;5094393;28;20197;-63
2022/03/14 01:15:47;;;;;;;21.08;18.63;;;;;;;;;;5094673;28;20197;-63
2022/03/14 01:18:15;;;;;;;22.77;17.48;;;;;;;;;;5094626;28;20205;-63
2022/03/14 01:20:43;;;;;;;21.05;17.73;;;;;;;;;;5094470;28;20197;-63
2022/03/14 01:23:11;;;;;;;26.02;17.33;;;;;;;;;;5094968;28;20240;-63
2022/03/14 01:25:38;;;;;;;25.98;18.48;;;;;;;;;;5094094;28;20196;-63
2022/03/14 01:28:05;;;;;;;26.05;17.48;;;;;;;;;;5094481;28;20307;-63
2022/03/14 01:30:33;;;;;;;25.13;18.33;;;;;;;;;;5093952;28;20668;-63
2022/03/14 01:33:00;;;;;;;26.02;18.92;;;;;;;;;;5095063;28;20238;-64
2022/03/14 01:35:27;;;;;;;23.38;17.65;;;;;;;;;;5094412;28;20192;-63
2022/03/14 01:37:57;;;;;;;27.88;19.58;;;;;;;;;;5093937;28;20650;-63
2022/03/14 01:40:25;;;;;;;22.95;17.73;;;;;;;;;;5094107;28;20232;-63
2022/03/14 01:42:52;;;;;;;22.95;17.35;;;;;;;;;;5095027;28;20257;-63
2022/03/14 01:45:19;;;;;;;23.77;17.23;;;;;;;;;;5094360;28;20310;-64
2022/03/14 01:47:47;;;;;;;27.45;18.13;;;;;;;;;;5094215;28;20558;-63
2022/03/14 01:50:15;;;;;;;29.52;18.13;;;;;;;;;;5093761;28;20703;-63
2022/03/14 01:52:42;;;;;;;24.27;19.17;;;;;;;;;;5093707;28;20254;-63
2022/03/14 01:55:12;;;;;;;24.65;18.48;;;;;;;;;;5093514;28;20478;-63
2022/03/14 01:57:39;;;;;;;25.45;18.33;;;;;;;;;;5093247;28;20199;-63
2022/03/14 02:00:07;;;;;;;27.42;17.67;;;;;;;;;;5093723;28;20193;-64
2022/03/14 02:02:34;;;;;;;24.88;18.30;;;;;;;;;;5093523;28;20203;-64
2022/03/14 02:05:01;;;;;;;24.23;17.60;;;;;;;;;;5093862;28;20200;-64
2022/03/14 02:07:29;;;;;;;24.70;18.10;;;;;;;;;;5093881;28;20195;-64
2022/03/14 02:09:56;;;;;;;24.98;18.38;;;;;;;;;;5093867;28;20236;-63
2022/03/14 02:12:24;;;;;;;21.75;17.88;;;;;;;;;;5093617;28;20231;-63
2022/03/14 02:14:52;;;;;;;28.05;18.52;;;;;;;;;;5093378;28;20197;-63
2022/03/14 02:17:20;;;;;;;22.77;16.80;;;;;;;;;;5093475;28;20200;-63
2022/03/14 02:19:47;;;;;;;25.63;18.77;;;;;;;;;;5093823;28;20222;-63
2022/03/14 02:22:16;;;;;;;24.55;16.67;;;;;;;;;;5093871;28;20211;-63
2022/03/14 02:24:44;;;;;;;23.17;17.90;;;;;;;;;;5093293;28;20193;-63
2022/03/14 02:27:12;;;;;;;26.10;18.40;;;;;;;;;;5093335;28;20291;-63
2022/03/14 02:29:39;;;;;;;23.27;18.80;;;;;;;;;;5093229;28;20226;-63
2022/03/14 02:32:07;;;;;;;24.55;18.00;;;;;;;;;;5094214;28;20223;-63
2022/03/14 02:34:34;;;;;;;27.73;18.35;;;;;;;;;;5094126;28;20190;-64
2022/03/14 02:37:02;;;;;;;25.75;18.55;;;;;;;;;;5093447;28;20729;-63
2022/03/14 02:39:32;;;;;;;25.35;18.55;;;;;;;;;;5093524;28;20270;-63
2022/03/14 02:42:00;;;;;;;31.20;18.48;;;;;;;;;;5093429;28;20204;-63
2022/03/14 02:44:28;;;;;;;25.05;17.45;;;;;;;;;;5093704;28;20247;-64
2022/03/14 02:46:55;;;;;;;26.65;17.92;;;;;;;;;;5093445;28;20196;-64
2022/03/14 02:49:22;;;;;;;24.33;19.02;;;;;;;;;;5093694;28;20196;-63
2022/03/14 02:51:50;;;;;;;23.02;18.30;;;;;;;;;;5093267;28;20228;-63
2022/03/14 02:54:17;;;;;;;24.15;17.98;;;;;;;;;;5093734;28;20268;-63
2022/03/14 02:56:46;;;;;;;26.27;18.42;;;;;;;;;;5093520;28;20194;-63
2022/03/14 02:59:13;;;;;;;23.73;18.33;;;;;;;;;;5093343;28;20197;-63
2022/03/14 03:01:40;;;;;;;23.80;17.52;;;;;;;;;;5093322;28;20625;-63
2022/03/14 03:04:07;;;;;;;25.85;18.42;;;;;;;;;;5093003;28;20204;-63
2022/03/14 03:06:35;;;;;;;24.92;17.95;;;;;;;;;;5093454;28;20204;-63
2022/03/14 03:09:03;;;;;;;28.50;18.55;;;;;;;;;;5093840;28;20202;-63
2022/03/14 03:11:30;;;;;;;27.15;18.83;;;;;;;;;;5096533;28;20206;-63
2022/03/14 03:13:59;;;;;;;27.85;20.75;;;;;;;;;;5096709;28;20212;-63
2022/03/14 03:16:27;;;;;;;25.05;19.25;;;;;;;;;;5097013;28;20196;-64
2022/03/14 03:18:54;;;;;;;28.45;20.27;;;;;;;;;;5097430;28;20207;-64
2022/03/14 03:21:21;;;;;;;29.17;21.77;;;;;;;;;;5096797;28;20219;-64
2022/03/14 03:23:48;;;;;;;29.08;21.10;;;;;;;;;;5097219;28;20193;-64
2022/03/14 03:26:15;;;;;;;25.75;20.00;;;;;;;;;;5096831;28;20192;-64
2022/03/14 03:28:43;;;;;;;27.33;20.52;;;;;;;;;;5096960;28;20244;-64
2022/03/14 03:31:12;;;;;;;25.90;20.60;;;;;;;;;;5096931;28;20290;-64
2022/03/14 03:33:40;;;;;;;27.42;20.83;;;;;;;;;;5096547;28;20220;-64
2022/03/14 03:36:07;;;;;;;32.70;23.15;;;;;;;;;;5096508;28;20744;-63
2022/03/14 03:38:35;;;;;;;25.23;19.83;;;;;;;;;;5096796;28;20279;-63
2022/03/14 03:41:03;;;;;;;26.23;20.30;;;;;;;;;;5096384;28;20198;-63
2022/03/14 03:43:30;;;;;;;27.40;20.67;;;;;;;;;;5096177;28;20287;-63
2022/03/14 03:45:57;;;;;;;26.15;21.00;;;;;;;;;;5095968;28;20194;-63
2022/03/14 03:48:26;;;;;;;33.22;22.60;;;;;;;;;;5096108;28;20649;-63
2022/03/14 03:50:53;;;;;;;28.38;21.05;;;;;;;;;;5096382;28;20558;-64
2022/03/14 03:53:20;;;;;;;34.72;23.75;;;;;;;;;;5096337;28;20224;-64
2022/03/14 03:55:48;;;;;;;29.63;21.98;;;;;;;;;;5096532;28;20274;-64
2022/03/14 03:58:15;;;;;;;29.85;22.13;;;;;;;;;;5096162;28;20196;-64
2022/03/14 04:00:42;;;;;;;28.27;22.17;;;;;;;;;;5096788;28;20203;-63
2022/03/14 04:03:10;;;;;;;34.08;23.73;;;;;;;;;;5096130;28;20242;-63
2022/03/14 04:05:39;;;;;;;33.05;23.02;;;;;;;;;;5096303;28;20283;-63
2022/03/14 04:08:08;;;;;;;31.08;21.60;;;;;;;;;;5095582;28;20204;-63
2022/03/14 04:10:35;;;;;;;39.30;23.45;;;;;;;;;;5096404;28;20195;-63
2022/03/14 04:13:03;;;;;;;32.30;23.40;;;;;;;;;;5095460;28;20232;-63
2022/03/14 04:15:31;;;;;;;36.20;25.00;;;;;;;;;;5096150;28;20196;-63
2022/03/14 04:18:00;;;;;;;38.28;22.70;;;;;;;;;;5095725;28;20196;-63
2022/03/14 04:20:28;;;;;;;33.05;22.65;;;;;;;;;;5095620;28;20650;-63
2022/03/14 04:22:57;;;;;;;31.10;23.48;;;;;;;;;;5095033;28;20286;-63
2022/03/14 04:25:24;;;;;;;34.42;22.63;;;;;;;;;;5096061;28;20303;-63
2022/03/14 04:27:51;;;;;;;30.65;23.00;;;;;;;;;;5095475;28;20231;-63
2022/03/14 04:30:18;;;;;;;28.13;21.25;;;;;;;;;;5094257;28;20243;-64
2022/03/14 04:32:46;;;;;;;34.35;25.08;;;;;;;;;;5094467;28;20217;-63
2022/03/14 04:35:13;;;;;;;28.20;22.27;;;;;;;;;;5094411;28;20196;-64
2022/03/14 04:37:40;;;;;;;38.30;23.92;;;;;;;;;;5094529;28;20603;-64
2022/03/14 04:40:11;;;;;;;31.13;23.02;;;;;;;;;;5094821;28;20571;-63
2022/03/14 04:42:38;;;;;;;38.22;23.20;;;;;;;;;;5094534;28;20211;-64
2022/03/14 04:45:06;;;;;;;36.80;22.45;;;;;;;;;;5094802;28;20292;-63
2022/03/14 04:47:33;;;;;;;34.53;23.63;;;;;;;;;;5095344;28;20200;-64
2022/03/14 04:50:00;;;;;;;34.22;22.85;;;;;;;;;;5094295;28;20747;-64
2022/03/14 04:52:28;;;;;;;31.33;22.38;;;;;;;;;;5094616;28;20690;-64
2022/03/14 04:54:56;;;;;;;35.05;24.33;;;;;;;;;;5095253;28;20240;-63
2022/03/14 04:57:24;;;;;;;36.38;24.65;;;;;;;;;;5094511;28;20194;-64
2022/03/14 04:59:51;;;;;;;33.83;24.98;;;;;;;;;;5094885;28;20199;-64
2022/03/14 05:02:21;;;;;;;35.78;23.85;;;;;;;;;;5094521;28;20549;-64
2022/03/14 05:04:48;;;;;;;32.92;22.33;;;;;;;;;;5094520;28;20652;-63
2022/03/14 05:07:15;;;;;;;34.35;24.58;;;;;;;;;;5095017;28;20193;-64
2022/03/14 05:09:43;;;;;;;36.15;23.42;;;;;;;;;;5094204;28;20202;-64
2022/03/14 05:12:11;;;;;;;35.85;24.90;;;;;;;;;;5094168;28;20652;-64
2022/03/14 05:14:40;;;;;;;34.05;25.00;;;;;;;;;;5094304;28;20202;-63
2022/03/14 05:17:08;;;;;;;39.10;25.98;;;;;;;;;;5094143;28;20194;-64
2022/03/14 05:19:35;;;;;;;35.88;24.48;;;;;;;;;;5094573;28;20198;-65
2022/03/14 05:22:03;;;;;;;43.30;26.05;;;;;;;;;;5094138;28;20195;-64
2022/03/14 05:24:30;;;;;;;37.03;25.20;;;;;;;;;;5094687;28;20231;-64
2022/03/14 05:26:58;;;;;;;33.53;24.65;;;;;;;;;;5094031;28;20357;-65
2022/03/14 05:29:25;;;;;;;39.33;25.45;;;;;;;;;;5093689;28;20716;-63
2022/03/14 05:31:53;;;;;;;41.40;26.70;;;;;;;;;;5094165;28;20557;-63
2022/03/14 05:34:21;;;;;;;38.00;25.70;;;;;;;;;;5093250;28;20220;-63
2022/03/14 05:36:48;;;;;;;40.92;27.20;;;;;;;;;;5093784;28;20198;-63
2022/03/14 05:39:15;;;;;;;36.97;24.35;;;;;;;;;;5094038;28;20196;-63
2022/03/14 05:41:42;;;;;;;35.70;24.95;;;;;;;;;;5094167;28;20207;-63
2022/03/14 05:44:10;;;;;;;34.80;24.52;;;;;;;;;;5094130;28;20269;-63
2022/03/14 05:46:37;;;;;;;36.83;24.17;;;;;;;;;;5093763;28;20665;-63
2022/03/14 05:49:06;;;;;;;30.98;23.23;;;;;;;;;;5094124;28;20195;-64
2022/03/14 05:51:36;;;;;;;35.75;23.85;;;;;;;;;;5094139;28;20195;-64
2022/03/14 05:54:04;;;;;;;38.47;22.80;;;;;;;;;;5093898;28;20330;-63
2022/03/14 05:56:31;;;;;;;32.42;22.75;;;;;;;;;;5094009;28;20199;-64
2022/03/14 05:58:58;;;;;;;30.35;21.75;;;;;;;;;;5093595;28;20278;-64
2022/03/14 06:01:25;;;;;;;36.35;24.35;;;;;;;;;;5094248;28;20207;-64
2022/03/14 06:03:53;;;;;;;31.88;22.83;;;;;;;;;;5094003;28;20200;-63
2022/03/14 06:06:21;;;;;;;31.02;22.48;;;;;;;;;;5093792;28;20222;-63
2022/03/14 06:08:48;;;;;;;34.92;22.48;;;;;;;;;;5093757;28;20201;-63
2022/03/14 06:11:16;;;;;;;36.30;23.13;;;;;;;;;;5093768;28;20719;-63
2022/03/14 06:13:43;;;;;;;33.90;21.90;;;;;;;;;;5093260;28;20216;-64
2022/03/14 06:16:13;;;;;;;33.30;23.90;;;;;;;;;;5093610;28;20645;-64
2022/03/14 06:18:40;;;;;;;35.03;25.13;;;;;;;;;;5093457;28;20207;-64
2022/03/14 06:21:07;;;;;;;28.65;21.95;;;;;;;;;;5093312;28;20199;-64
2022/03/14 06:23:36;;;;;;;26.92;20.33;;;;;;;;;;5093385;28;20281;-64
2022/03/14 06:26:03;;;;;;;27.58;20.63;;;;;;;;;;5093363;28;20202;-64
2022/03/14 06:28:30;;;;;;;26.02;19.90;;;;;;;;;;5093525;28;20197;-64
2022/03/14 06:30:57;;;;;;;27.48;20.27;;;;;;;;;;5093092;28;20637;-63
2022/03/14 06:33:24;;;;;;;29.48;20.55;;;;;;;;;;5093298;28;20229;-64
2022/03/14 06:35:52;;;;;;;30.17;20.20;;;;;;;;;;5093332;28;20192;-64
2022/03/14 06:38:19;;;;;;;31.25;20.10;;;;;;;;;;5093082;28;20234;-64
2022/03/14 06:40:48;;;;;;;30.23;19.73;;;;;;;;;;5093079;28;20631;-65
2022/03/14 06:43:17;;;;;;;28.25;20.05;;;;;;;;;;5093390;28;20556;-70
2022/03/14 06:45:45;;;;;;;29.52;20.27;;;;;;;;;;5096847;28;20250;-65
2022/03/14 06:48:13;;;;;;;31.27;20.05;;;;;;;;;;5097455;28;20723;-65
2022/03/14 06:50:40;;;;;;;33.97;22.40;;;;;;;;;;5097515;28;20282;-64
2022/03/14 06:53:07;;;;;;;32.22;21.20;;;;;;;;;;5097115;28;20310;-64
2022/03/14 06:55:34;;;;;;;28.98;18.98;;;;;;;;;;5096778;28;20227;-64
2022/03/14 06:58:03;;;;;;;25.35;19.17;;;;;;;;;;5097320;28;20735;-64
2022/03/14 07:00:30;;;;;;;25.70;18.90;;;;;;;;;;5097337;28;20252;-64
2022/03/14 07:02:57;;;;;;;26.85;18.77;;;;;;;;;;5096839;28;20292;-64
2022/03/14 07:05:26;;;;;;;26.25;18.90;;;;;;;;;;5096797;28;20636;-64
2022/03/14 07:07:53;;;;;;;24.88;16.95;;;;;;;;;;5097150;28;20220;-64
2022/03/14 07:10:21;;;;;;;24.15;17.33;;;;;;;;;;5096652;28;20192;-64
2022/03/14 07:12:50;;;;;;;24.40;18.25;;;;;;;;;;5096672;28;20195;-64
2022/03/14 07:15:21;;;;;;;24.50;16.58;;;;;;;;;;5096919;28;20246;-64
2022/03/14 07:17:48;;;;;;;24.63;17.50;;;;;;;;;;5097026;28;20213;-64
2022/03/14 07:20:17;;;;;;;20.17;15.20;;;;;;;;;;5096977;28;20196;-64
2022/03/14 07:22:52;;;;;;;22.42;15.82;;;;;;;;;;5096798;28;20199;-64
2022/03/14 07:25:20;;;;;;;24.48;15.18;;;;;;;;;;5096404;28;20196;-64
2022/03/14 07:27:47;;;;;;;24.13;16.00;;;;;;;;;;5096479;28;20286;-64
2022/03/14 07:30:15;;;;;;;20.48;15.38;;;;;;;;;;5096245;28;20191;-63
2022/03/14 07:32:43;;;;;;;23.02;15.32;;;;;;;;;;5096648;28;20198;-64
2022/03/14 07:35:11;;;;;;;20.83;15.52;;;;;;;;;;5096380;28;20219;-64
2022/03/14 07:37:39;;;;;;;21.25;15.00;;;;;;;;;;5096199;28;20204;-64
2022/03/14 07:40:07;;;;;;;20.42;15.50;;;;;;;;;;5096566;28;20249;-64
2022/03/14 07:42:34;;;;;;;23.20;15.65;;;;;;;;;;5096093;28;20226;-64
2022/03/14 07:45:01;;;;;;;20.23;14.50;;;;;;;;;;5096238;28;20728;-64
2022/03/14 07:47:29;;;;;;;21.42;15.90;;;;;;;;;;5096634;28;20200;-64
2022/03/14 07:49:58;;;;;;;22.00;15.18;;;;;;;;;;5095938;28;20208;-64
2022/03/14 07:52:25;;;;;;;16.92;13.88;;;;;;;;;;5096209;28;20191;-64
2022/03/14 07:54:52;;;;;;;23.00;15.73;;;;;;;;;;5095651;28;20692;-64
2022/03/14 07:57:20;;;;;;;24.50;16.75;;;;;;;;;;5094829;28;20199;-64
2022/03/14 07:59:47;;;;;;;21.95;16.17;;;;;;;;;;5095826;28;20205;-64
2022/03/14 08:02:14;;;;;;;19.52;15.25;;;;;;;;;;5096483;28;20196;-64
2022/03/14 08:04:42;;;;;;;20.75;15.35;;;;;;;;;;5095959;28;20560;-64
2022/03/14 08:07:10;;;;;;;22.38;15.40;;;;;;;;;;5096247;28;20671;-64
2022/03/14 08:09:37;;;;;;;23.10;15.10;;;;;;;;;;5095487;28;20196;-64
2022/03/14 08:12:05;;;;;;;21.48;15.75;;;;;;;;;;5095545;28;20667;-66
2022/03/14 08:14:32;;;;;;;20.55;14.98;;;;;;;;;;5095594;28;20245;-64
2022/03/14 08:16:59;;;;;;;19.40;15.38;;;;;;;;;;5095714;28;20240;-64
2022/03/14 08:19:28;;;;;;;32.45;23.55;;;;;;;;;;5095367;28;20596;-64
2022/03/14 08:21:56;;;;;;;27.88;18.38;;;;;;;;;;5095561;28;20203;-63
2022/03/14 08:24:28;;;;;;;22.42;17.48;;;;;;;;;;5095097;28;20289;-64
2022/03/14 08:26:55;;;;;;;17.58;15.40;;;;;;;;;;5095576;28;20184;-64
2022/03/14 08:29:22;;;;;;;18.70;14.93;;;;;;;;;;5095528;28;20190;-64
2022/03/14 08:31:50;;;;;;;21.92;16.40;;;;;;;;;;5095431;28;20198;-64
2022/03/14 08:34:17;;;;;;;18.60;15.45;;;;;;;;;;5095051;28;20251;-64
2022/03/14 08:36:44;;;;;;;20.65;16.42;;;;;;;;;;5095301;28;20207;-63
2022/03/14 08:39:11;;;;;;;18.00;13.88;;;;;;;;;;5095008;28;20286;-64
2022/03/14 08:41:40;;;;;;;16.98;14.73;;;;;;;;;;5095210;28;20195;-64
2022/03/14 08:44:08;;;;;;;18.25;14.25;;;;;;;;;;5095270;28;20224;-63
2022/03/14 08:46:35;;;;;;;21.17;14.27;;;;;;;;;;5095485;28;20227;-64
2022/03/14 08:49:08;;;;;;;18.30;13.23;;;;;;;;;;5095231;28;20203;-64
2022/03/14 08:51:37;;;;;;;15.13;12.27;;;;;;;;;;5094808;28;20190;-64
2022/03/14 08:54:04;;;;;;;19.83;12.65;;;;;;;;;;5095116;28;20601;-64
2022/03/14 08:56:34;;;;;;;15.50;12.90;;;;;;;;;;5094652;28;20192;-64
2022/03/14 08:59:03;;;;;;;18.45;11.32;;;;;;;;;;5094962;28;20203;-64
2022/03/14 09:01:32;;;;;;;15.75;13.00;;;;;;;;;;5094510;28;20620;-64
2022/03/14 09:04:00;;;;;;;13.32;11.32;;;;;;;;;;5094871;28;20208;-64
2022/03/14 09:06:28;;;;;;;14.15;12.60;;;;;;;;;;5094691;28;20192;-64
2022/03/14 09:08:56;;;;;;;13.65;12.15;;;;;;;;;;5094906;28;20244;-64
2022/03/14 09:11:24;;;;;;;16.63;12.60;;;;;;;;;;5094653;28;20200;-64
2022/03/14 09:13:51;;;;;;;18.30;14.85;;;;;;;;;;5094610;28;20555;-64
2022/03/14 09:16:20;;;;;;;14.85;13.30;;;;;;;;;;5094305;28;20231;-64
2022/03/14 09:18:47;;;;;;;18.23;13.05;;;;;;;;;;5094543;28;20199;-64
2022/03/14 09:21:14;;;;;;;14.68;12.15;;;;;;;;;;5094545;28;20203;-64
2022/03/14 09:23:42;;;;;;;14.38;11.32;;;;;;;;;;5094627;28;20628;-64
2022/03/14 09:26:09;;;;;;;12.15;10.90;;;;;;;;;;5094388;28;20200;-64
2022/03/14 09:28:39;;;;;;;16.45;12.52;;;;;;;;;;5094438;28;20617;-65
2022/03/14 09:31:07;;;;;;;16.38;11.13;;;;;;;;;;5094214;28;20674;-64
2022/03/14 09:33:36;;;;;;;12.00;10.55;;;;;;;;;;5093971;28;20675;-64
2022/03/14 09:36:03;;;;;;;16.80;11.75;;;;;;;;;;5093280;28;20282;-64
2022/03/14 09:38:31;;;;;;;14.27;11.75;;;;;;;;;;5093973;28;20193;-64
2022/03/14 09:41:02;;;;;;;15.95;13.23;;;;;;;;;;5094367;28;20221;-64
2022/03/14 09:43:30;;;;;;;13.10;11.32;;;;;;;;;;5094193;28;20642;-65
2022/03/14 09:45:58;;;;;;;15.05;12.43;;;;;;;;;;5094143;28;20204;-65
2022/03/14 09:48:25;;;;;;;13.48;11.95;;;;;;;;;;5094191;28;20282;-65
2022/03/14 09:50:55;;;;;;;25.92;12.60;;;;;;;;;;5093663;28;20196;-65
2022/03/14 09:53:22;;;;;;;13.52;11.82;;;;;;;;;;5094023;28;20200;-64
2022/03/14 09:55:49;;;;;;;17.45;12.25;;;;;;;;;;5094270;28;20243;-65
2022/03/14 09:58:18;;;;;;;19.60;12.90;;;;;;;;;;5094506;28;20659;-65
2022/03/14 10:00:46;;;;;;;16.80;13.30;;;;;;;;;;5093908;28;20200;-66
2022/03/14 10:03:14;;;;;;;16.92;14.00;;;;;;;;;;5093584;28;20672;-66
2022/03/14 10:05:41;;;;;;;16.55;14.07;;;;;;;;;;5093866;28;20207;-66
2022/03/14 10:08:10;;;;;;;16.10;13.05;;;;;;;;;;5093503;28;20201;-66
2022/03/14 10:10:38;;;;;;;17.40;13.60;;;;;;;;;;5093511;28;20242;-66
2022/03/14 10:13:06;;;;;;;18.52;13.25;;;;;;;;;;5093477;28;20195;-66
2022/03/14 10:15:37;;;;;;;20.63;14.55;;;;;;;;;;5093422;28;20209;-65
2022/03/14 10:18:10;;;;;;;16.08;13.05;;;;;;;;;;5093438;28;20184;-66
2022/03/14 10:20:38;;;;;;;15.75;13.20;;;;;;;;;;5092780;28;20184;-66
2022/03/14 10:23:05;;;;;;;17.98;12.95;;;;;;;;;;5093494;28;20199;-65
2022/03/14 10:25:34;;;;;;;18.27;14.65;;;;;;;;;;5093488;28;20235;-65
2022/03/14 10:28:04;;;;;;;17.45;14.32;;;;;;;;;;5093494;28;20554;-65
2022/03/14 10:30:32;;;;;;;18.63;14.02;;;;;;;;;;5093586;28;20334;-65
2022/03/14 10:33:03;;;;;;;20.67;15.65;;;;;;;;;;5093048;28;20631;-66
2022/03/14 10:35:35;;;;;;;18.80;14.15;;;;;;;;;;5093432;28;20212;-65
2022/03/14 10:38:04;;;;;;;18.15;14.10;;;;;;;;;;5093606;28;20188;-65
2022/03/14 10:40:32;;;;;;;15.30;13.23;;;;;;;;;;5093113;28;20657;-65
2022/03/14 10:43:01;;;;;;;19.48;14.27;;;;;;;;;;5093352;28;20200;-65
2022/03/14 10:45:31;;;;;;;16.25;13.50;;;;;;;;;;5093136;28;20200;-66
2022/03/14 10:47:58;;;;;;;21.08;14.15;;;;;;;;;;5093581;28;20638;-65
2022/03/14 10:50:30;;;;;;;23.13;14.90;;;;;;;;;;5093476;28;20197;-65
2022/03/14 10:53:05;;;;;;;17.10;12.47;;;;;;;;;;5093136;28;20192;-66
2022/03/14 10:55:36;;;;;;;18.35;12.55;;;;;;;;;;5093484;28;20493;-65
2022/03/14 10:58:10;;;;;;;19.13;14.00;;;;;;;;;;5093257;28;20225;-66
2022/03/14 11:00:47;;;;;;;14.30;12.33;;;;;;;;;;5093478;28;20428;-65
2022/03/14 11:03:21;;;;;;;23.03;14.07;;;;;;;;;;5092744;28;20529;-65
2022/03/14 11:05:48;;;;;;;15.85;12.95;;;;;;;;;;5092985;28;20748;-65
2022/03/14 11:08:28;;;;;;;13.60;11.90;;;;;;;;;;5093197;28;20286;-66
2022/03/14 11:10:56;;;;;;;16.30;12.15;;;;;;;;;;5093467;28;20200;-65
2022/03/14 11:13:29;;;;;;;24.23;14.35;;;;;;;;;;5092815;28;20242;-65
2022/03/14 11:15:58;;;;;;;16.30;11.73;;;;;;;;;;5092813;28;20217;-65
2022/03/14 11:18:25;;;;;;;16.80;12.55;;;;;;;;;;5093286;28;20555;-65
2022/03/14 11:20:53;;;;;;;19.75;13.02;;;;;;;;;;5093118;28;20197;-65
2022/03/14 11:23:21;;;;;;;12.73;11.43;;;;;;;;;;5092875;28;20296;-65
2022/03/14 11:25:48;;;;;;;14.27;11.40;;;;;;;;;;5093077;28;20291;-66
2022/03/14 11:28:16;;;;;;;13.88;12.05;;;;;;;;;;5093201;28;20864;-65
2022/03/14 11:30:45;;;;;;;11.87;10.27;;;;;;;;;;5092987;28;20241;-65
2022/03/14 11:33:14;;;;;;;14.03;12.53;;;;;;;;;;5096443;28;20436;-65
2022/03/14 11:35:41;;;;;;;19.97;12.17;;;;;;;;;;5096526;28;20478;-65
2022/03/14 11:38:09;;;;;;;14.27;10.83;;;;;;;;;;5096223;28;20470;-65
2022/03/14 11:40:37;;;;;;;17.13;12.10;;;;;;;;;;5096211;28;20963;-65
2022/03/14 11:43:04;;;;;;;19.53;12.33;;;;;;;;;;5096464;28;20443;-65
2022/03/14 11:45:34;;;;;;;17.08;11.88;;;;;;;;;;5096418;28;20450;-65
2022/03/14 11:48:05;;;;;;;12.50;11.15;;;;;;;;;;5096046;28;20197;-65
2022/03/14 11:50:43;;;;;;;11.50;8.70;;;;;;;;;;5096045;28;20182;-65
2022/03/14 11:53:10;;;;;;;13.93;11.70;;;;;;;;;;5096329;28;20496;-66
2022/03/14 11:55:50;;;;;;;15.47;12.03;;;;;;;;;;5096966;28;20964;-65
2022/03/14 11:58:29;;;;;;;12.77;9.63;;;;;;;;;;5096613;28;20426;-66
2022/03/14 12:00:56;;;;;;;15.00;10.87;;;;;;;;;;5096618;28;20506;-66
2022/03/14 12:03:38;;;;;;;12.57;10.20;;;;;;;;;;5095667;28;20470;-66
2022/03/14 12:06:08;;;;;;;25.00;11.70;;;;;;;;;;5094406;28;20458;-66
2022/03/14 12:09:02;;;;;;;15.60;10.47;;;;;;;;;;5095857;28;20440;-65
2022/03/14 12:11:35;;;;;;;16.50;10.20;;;;;;;;;;5096109;28;20510;-65
2022/03/14 12:14:03;;;;;;;14.00;11.45;;;;;;;;;;5095387;28;20443;-65
2022/03/14 12:16:39;;;;;;;14.17;12.07;;;;;;;;;;5096167;28;20542;-65
2022/03/14 12:19:27;;;;;;;13.60;11.13;;;;;;;;;;5095370;28;20843;-66
2022/03/14 12:21:57;;;;;;;13.87;10.43;;;;;;;;;;5095669;28;20467;-66
2022/03/14 12:24:44;;;;;;;15.93;11.37;;;;;;;;;;5095342;28;20486;-66
2022/03/14 12:27:14;;;;;;;15.50;10.83;;;;;;;;;;5096116;28;20432;-66
2022/03/14 12:29:42;;;;;;;17.20;10.20;;;;;;;;;;5095197;28;20978;-66
2022/03/14 12:32:28;;;;;;;14.77;11.20;;;;;;;;;;5095823;28;20289;-66
2022/03/14 12:34:59;;;;;;;18.70;11.10;;;;;;;;;;5095335;28;20830;-66
2022/03/14 12:37:35;;;;;;;16.15;9.45;;;;;;;;;;5095978;28;20440;-68
2022/03/14 12:40:02;;;;;;;14.40;10.70;;;;;;;;;;5095299;28;20178;-66
2022/03/14 12:42:30;;;;;;;16.20;9.63;;;;;;;;;;5094921;28;20431;-67
2022/03/14 12:45:12;;;;;;;17.70;10.20;;;;;;;;;;5095342;28;20444;-67
2022/03/14 12:47:41;;;;;;;14.48;10.25;;;;;;;;;;5093384;28;20543;-67
2022/03/14 12:50:09;;;;;;;13.60;11.43;;;;;;;;;;5095299;28;20274;-66
2022/03/14 12:52:52;;;;;;;10.97;9.87;;;;;;;;;;5094711;28;20443;-66
2022/03/14 12:55:22;;;;;;;16.33;10.40;;;;;;;;;;5094917;28;20586;-66
2022/03/14 12:57:52;;;;;;;14.80;10.23;;;;;;;;;;5094799;28;20428;-66
2022/03/14 13:00:19;;;;;;;11.40;10.00;;;;;;;;;;5094952;28;20444;-66
2022/03/14 13:02:46;;;;;;;14.30;10.27;;;;;;;;;;5095174;28;20531;-68
2022/03/14 13:05:20;;;;;;;12.67;9.50;;;;;;;;;;5095001;28;20452;-66
2022/03/14 13:08:00;;;;;;;15.60;10.27;;;;;;;;;;5094844;28;20434;-66
2022/03/14 13:10:40;;;;;;;10.47;9.00;;;;;;;;;;5094838;28;20422;-66
2022/03/14 13:13:10;;;;;;;15.80;10.07;;;;;;;;;;5094697;28;20987;-66
2022/03/14 13:15:38;;;;;;;10.93;9.70;;;;;;;;;;5093884;28;20567;-66
2022/03/14 13:18:22;;;;;;;12.93;10.00;;;;;;;;;;5094522;28;20446;-66
2022/03/14 13:20:49;;;;;;;13.93;9.40;;;;;;;;;;5094557;28;20428;-67
2022/03/14 13:23:17;;;;;;;18.40;10.63;;;;;;;;;;5094560;28;20447;-66
2022/03/14 13:25:49;;;;;;;12.90;9.07;;;;;;;;;;5094191;28;20530;-66
2022/03/14 13:28:27;;;;;;;14.57;9.97;;;;;;;;;;5094849;28;20451;-66
2022/03/14 13:30:55;;;;;;;15.20;8.90;;;;;;;;;;5094824;28;20787;-66
2022/03/14 13:33:26;;;;;;;17.83;8.80;;;;;;;;;;5094104;28;20939;-66
2022/03/14 13:35:55;;;;;;;13.53;9.37;;;;;;;;;;5094321;28;20528;-66
2022/03/14 13:38:34;;;;;;;12.57;9.23;;;;;;;;;;5094759;28;20451;-66
2022/03/14 13:41:07;;;;;;;18.53;9.87;;;;;;;;;;5093988;28;20861;-65
2022/03/14 13:43:36;;;;;;;17.73;9.80;;;;;;;;;;5094447;28;20488;-66
2022/03/14 13:46:22;;;;;;;12.80;9.97;;;;;;;;;;5094027;28;20478;-65
2022/03/14 13:48:53;;;;;;;12.50;8.90;;;;;;;;;;5093800;28;20446;-65
2022/03/14 13:51:21;;;;;;;15.23;10.43;;;;;;;;;;5094140;28;20438;-65
2022/03/14 13:53:48;;;;;;;16.27;9.90;;;;;;;;;;5093438;28;20475;-66
2022/03/14 13:56:17;;;;;;;11.97;9.33;;;;;;;;;;5094218;28;20818;-66
2022/03/14 13:58:54;;;;;;;14.93;9.80;;;;;;;;;;5093906;28;20792;-65
2022/03/14 14:01:22;;;;;;;12.43;8.97;;;;;;;;;;5093496;28;20479;-66
2022/03/14 14:03:50;;;;;;;15.43;9.70;;;;;;;;;;5093471;28;20494;-66
2022/03/14 14:06:17;;;;;;;17.07;9.17;;;;;;;;;;5093715;28;20435;-66
2022/03/14 14:08:45;;;;;;;11.00;8.70;;;;;;;;;;5094262;28;20439;-66
2022/03/14 14:11:24;;;;;;;14.73;9.97;;;;;;;;;;5093773;28;20560;-66
2022/03/14 14:13:52;;;;;;;13.97;10.47;;;;;;;;;;5094125;28;20481;-67
2022/03/14 14:16:22;;;;;;;13.97;8.70;;;;;;;;;;5093586;28;20486;-66
2022/03/14 14:19:04;;;;;;;13.03;9.97;;;;;;;;;;5093699;28;20440;-66
2022/03/14 14:21:31;;;;;;;9.90;8.27;;;;;;;;;;5093174;28;20959;-66
2022/03/14 14:23:58;;;;;;;12.20;10.17;;;;;;;;;;5093783;28;20913;-66
2022/03/14 14:26:32;;;;;;;11.37;10.10;;;;;;;;;;5093645;28;20448;-66
2022/03/14 14:29:01;;;;;;;10.37;8.53;;;;;;;;;;5093530;28;20435;-66